sensor_id;sensor_type;location;lat;lon;timestamp;P1;durP1;ratioP1;P2;durP2;ratioP2
18647;SDS011;9453;50.294;18.644;2023-04-30T04:02:19;22.13;;;10.93;;
18647;SDS011;9453;50.294;18.644;2023-04-30T04:04:47;18.23;;;11.00;;
18647;SDS011;9453;50.294;18.644;2023-04-30T04:07:15;24.13;;;11.60;;
18647;SDS011;9453;50.294;18.644;2023-04-30T04:09:43;19.37;;;10.53;;
18647;SDS011;9453;50.294;18.644;2023-04-30T04:12:10;21.57;;;10.80;;
18647;SDS011;9453;50.294;18.644;2023-04-30T04:14:37;25.23;;;10.83;;
18647;SDS011;9453;50.294;18.644;2023-04-30T04:17:04;21.07;;;10.53;;
18647;SDS011;9453;50.294;18.644;2023-04-30T04:19:32;22.70;;;10.90;;
18647;SDS011;9453;50.294;18.644;2023-04-30T04:21:59;22.73;;;9.90;;
18647;SDS011;9453;50.294;18.644;2023-04-30T04:24:26;18.73;;;10.00;;
18647;SDS011;9453;50.294;18.644;2023-04-30T04:26:53;22.87;;;9.80;;
18647;SDS011;9453;50.294;18.644;2023-04-30T04:29:20;17.57;;;9.80;;
18647;SDS011;9453;50.294;18.644;2023-04-30T04:31:47;17.30;;;9.50;;
18647;SDS011;9453;50.294;18.644;2023-04-30T04:34:15;20.93;;;10.43;;
18647;SDS011;9453;50.294;18.644;2023-04-30T04:36:45;19.63;;;9.60;;
18647;SDS011;9453;50.294;18.644;2023-04-30T04:39:12;19.33;;;10.70;;
18647;SDS011;9453;50.294;18.644;2023-04-30T04:41:39;20.67;;;9.70;;
18647;SDS011;9453;50.294;18.644;2023-04-30T04:44:06;17.97;;;9.13;;
18647;SDS011;9453;50.294;18.644;2023-04-30T04:46:33;22.33;;;9.33;;
18647;SDS011;9453;50.294;18.644;2023-04-30T04:49:02;18.73;;;9.73;;
18647;SDS011;9453;50.294;18.644;2023-04-30T04:51:29;20.83;;;9.57;;
18647;SDS011;9453;50.294;18.644;2023-04-30T04:53:58;19.17;;;9.00;;
18647;SDS011;9453;50.294;18.644;2023-04-30T04:56:25;21.57;;;8.73;;
18647;SDS011;9453;50.294;18.644;2023-04-30T04:58:52;15.33;;;8.90;;
18647;SDS011;9453;50.294;18.644;2023-04-30T05:01:19;18.87;;;9.33;;
18647;SDS011;9453;50.294;18.644;2023-04-30T05:03:46;18.70;;;9.40;;
18647;SDS011;9453;50.294;18.644;2023-04-30T05:06:13;17.50;;;9.60;;
18647;SDS011;9453;50.294;18.644;2023-04-30T05:08:40;15.20;;;8.60;;
18647;SDS011;9453;50.294;18.644;2023-04-30T05:11:08;18.70;;;8.80;;
18647;SDS011;9453;50.294;18.644;2023-04-30T05:13:35;16.37;;;9.17;;
18647;SDS011;9453;50.294;18.644;2023-04-30T05:16:02;15.77;;;9.13;;
18647;SDS011;9453;50.294;18.644;2023-04-30T05:18:30;16.40;;;8.20;;
18647;SDS011;9453;50.294;18.644;2023-04-30T05:20:57;19.10;;;8.73;;
18647;SDS011;9453;50.294;18.644;2023-04-30T05:23:28;16.93;;;8.77;;
18647;SDS011;9453;50.294;18.644;2023-04-30T05:25:55;19.10;;;9.00;;
18647;SDS011;9453;50.294;18.644;2023-04-30T05:28:23;15.37;;;8.20;;
18647;SDS011;9453;50.294;18.644;2023-04-30T05:30:50;17.43;;;8.73;;
18647;SDS011;9453;50.294;18.644;2023-04-30T05:33:17;16.07;;;8.53;;
18647;SDS011;9453;50.294;18.644;2023-04-30T05:35:44;16.13;;;8.33;;
18647;SDS011;9453;50.294;18.644;2023-04-30T05:38:11;14.67;;;7.90;;
18647;SDS011;9453;50.294;18.644;2023-04-30T05:40:38;16.90;;;7.77;;
18647;SDS011;9453;50.294;18.644;2023-04-30T05:43:05;15.87;;;7.27;;
18647;SDS011;9453;50.294;18.644;2023-04-30T05:45:34;15.93;;;7.90;;
18647;SDS011;9453;50.294;18.644;2023-04-30T05:48:01;14.43;;;7.70;;
18647;SDS011;9453;50.294;18.644;2023-04-30T05:50:28;15.00;;;8.40;;
18647;SDS011;9453;50.294;18.644;2023-04-30T05:52:55;12.47;;;7.23;;
18647;SDS011;9453;50.294;18.644;2023-04-30T05:55:22;12.80;;;7.90;;
18647;SDS011;9453;50.294;18.644;2023-04-30T05:57:49;16.37;;;8.00;;
18647;SDS011;9453;50.294;18.644;2023-04-30T06:00:16;15.20;;;7.47;;
18647;SDS011;9453;50.294;18.644;2023-04-30T06:02:44;13.67;;;7.23;;
18647;SDS011;9453;50.294;18.644;2023-04-30T06:05:12;19.57;;;8.00;;
18647;SDS011;9453;50.294;18.644;2023-04-30T06:07:38;16.40;;;6.90;;
18647;SDS011;9453;50.294;18.644;2023-04-30T06:10:06;13.40;;;8.00;;
18647;SDS011;9453;50.294;18.644;2023-04-30T06:12:34;12.97;;;6.90;;
18647;SDS011;9453;50.294;18.644;2023-04-30T06:15:01;16.30;;;6.83;;
18647;SDS011;9453;50.294;18.644;2023-04-30T06:17:28;15.10;;;7.10;;
18647;SDS011;9453;50.294;18.644;2023-04-30T06:19:56;12.57;;;6.87;;
18647;SDS011;9453;50.294;18.644;2023-04-30T06:22:26;17.47;;;8.33;;
18647;SDS011;9453;50.294;18.644;2023-04-30T06:24:54;10.33;;;6.40;;
18647;SDS011;9453;50.294;18.644;2023-04-30T06:27:22;14.63;;;7.50;;
18647;SDS011;9453;50.294;18.644;2023-04-30T06:29:49;11.57;;;6.23;;
18647;SDS011;9453;50.294;18.644;2023-04-30T06:32:15;15.10;;;7.47;;
18647;SDS011;9453;50.294;18.644;2023-04-30T06:34:42;14.37;;;6.47;;
18647;SDS011;9453;50.294;18.644;2023-04-30T06:37:11;11.87;;;6.37;;
18647;SDS011;9453;50.294;18.644;2023-04-30T06:39:38;9.73;;;5.87;;
18647;SDS011;9453;50.294;18.644;2023-04-30T06:42:05;13.77;;;6.37;;
18647;SDS011;9453;50.294;18.644;2023-04-30T06:44:32;13.50;;;6.17;;
18647;SDS011;9453;50.294;18.644;2023-04-30T06:46:58;12.67;;;6.23;;
18647;SDS011;9453;50.294;18.644;2023-04-30T06:49:25;14.93;;;5.63;;
18647;SDS011;9453;50.294;18.644;2023-04-30T06:51:52;12.87;;;5.77;;
18647;SDS011;9453;50.294;18.644;2023-04-30T06:54:21;8.90;;;5.10;;
18647;SDS011;9453;50.294;18.644;2023-04-30T06:56:50;12.63;;;6.07;;
18647;SDS011;9453;50.294;18.644;2023-04-30T06:59:17;12.47;;;5.67;;
18647;SDS011;9453;50.294;18.644;2023-04-30T07:01:44;13.67;;;5.30;;
18647;SDS011;9453;50.294;18.644;2023-04-30T07:04:11;10.67;;;5.20;;
18647;SDS011;9453;50.294;18.644;2023-04-30T07:06:38;12.17;;;5.47;;
18647;SDS011;9453;50.294;18.644;2023-04-30T07:09:05;15.20;;;5.80;;
18647;SDS011;9453;50.294;18.644;2023-04-30T07:11:34;10.60;;;5.80;;
18647;SDS011;9453;50.294;18.644;2023-04-30T07:14:01;10.53;;;5.40;;
18647;SDS011;9453;50.294;18.644;2023-04-30T07:16:28;14.70;;;5.73;;
18647;SDS011;9453;50.294;18.644;2023-04-30T07:18:55;11.53;;;5.30;;
18647;SDS011;9453;50.294;18.644;2023-04-30T07:21:23;12.97;;;5.57;;
18647;SDS011;9453;50.294;18.644;2023-04-30T07:23:51;11.23;;;5.33;;
18647;SDS011;9453;50.294;18.644;2023-04-30T07:26:18;10.67;;;5.30;;
18647;SDS011;9453;50.294;18.644;2023-04-30T07:28:50;9.37;;;5.20;;
18647;SDS011;9453;50.294;18.644;2023-04-30T07:31:17;13.73;;;5.60;;
18647;SDS011;9453;50.294;18.644;2023-04-30T07:33:44;10.40;;;5.10;;
18647;SDS011;9453;50.294;18.644;2023-04-30T07:36:12;10.33;;;4.63;;
18647;SDS011;9453;50.294;18.644;2023-04-30T07:38:39;7.27;;;4.70;;
18647;SDS011;9453;50.294;18.644;2023-04-30T07:41:07;11.27;;;5.27;;
18647;SDS011;9453;50.294;18.644;2023-04-30T07:43:34;10.40;;;4.80;;
18647;SDS011;9453;50.294;18.644;2023-04-30T07:46:03;7.30;;;4.50;;
18647;SDS011;9453;50.294;18.644;2023-04-30T07:48:30;11.50;;;4.70;;
18647;SDS011;9453;50.294;18.644;2023-04-30T07:50:57;11.20;;;4.60;;
18647;SDS011;9453;50.294;18.644;2023-04-30T07:53:24;9.70;;;4.93;;
18647;SDS011;9453;50.294;18.644;2023-04-30T07:55:51;7.43;;;4.10;;
18647;SDS011;9453;50.294;18.644;2023-04-30T07:58:18;7.97;;;4.17;;
18647;SDS011;9453;50.294;18.644;2023-04-30T08:00:45;10.57;;;4.37;;
18647;SDS011;9453;50.294;18.644;2023-04-30T08:03:14;7.20;;;3.87;;
18647;SDS011;9453;50.294;18.644;2023-04-30T08:05:41;8.53;;;4.07;;
18647;SDS011;9453;50.294;18.644;2023-04-30T08:08:08;7.97;;;3.77;;
18647;SDS011;9453;50.294;18.644;2023-04-30T08:10:35;11.23;;;3.87;;
18647;SDS011;9453;50.294;18.644;2023-04-30T08:13:02;7.27;;;3.40;;
18647;SDS011;9453;50.294;18.644;2023-04-30T08:15:30;8.93;;;3.47;;
18647;SDS011;9453;50.294;18.644;2023-04-30T08:17:59;9.03;;;4.10;;
18647;SDS011;9453;50.294;18.644;2023-04-30T08:20:27;8.47;;;3.80;;
18647;SDS011;9453;50.294;18.644;2023-04-30T08:22:54;8.00;;;3.97;;
18647;SDS011;9453;50.294;18.644;2023-04-30T08:25:21;7.87;;;3.70;;
18647;SDS011;9453;50.294;18.644;2023-04-30T08:27:48;5.67;;;2.97;;
18647;SDS011;9453;50.294;18.644;2023-04-30T08:30:15;5.23;;;3.50;;
18647;SDS011;9453;50.294;18.644;2023-04-30T08:32:42;10.87;;;3.20;;
18647;SDS011;9453;50.294;18.644;2023-04-30T08:35:09;7.27;;;3.27;;
18647;SDS011;9453;50.294;18.644;2023-04-30T08:37:38;7.10;;;3.10;;
18647;SDS011;9453;50.294;18.644;2023-04-30T08:40:07;7.83;;;3.47;;
18647;SDS011;9453;50.294;18.644;2023-04-30T08:42:36;5.90;;;3.20;;
18647;SDS011;9453;50.294;18.644;2023-04-30T08:45:07;5.83;;;2.90;;
18647;SDS011;9453;50.294;18.644;2023-04-30T08:47:38;6.00;;;2.93;;
18647;SDS011;9453;50.294;18.644;2023-04-30T08:50:06;5.97;;;2.90;;
18647;SDS011;9453;50.294;18.644;2023-04-30T08:52:34;5.30;;;2.97;;
18647;SDS011;9453;50.294;18.644;2023-04-30T08:55:06;8.17;;;2.90;;
18647;SDS011;9453;50.294;18.644;2023-04-30T08:57:35;11.70;;;2.83;;
18647;SDS011;9453;50.294;18.644;2023-04-30T09:00:03;6.13;;;3.37;;
18647;SDS011;9453;50.294;18.644;2023-04-30T09:02:31;9.50;;;2.93;;
18647;SDS011;9453;50.294;18.644;2023-04-30T09:04:59;12.17;;;3.00;;
18647;SDS011;9453;50.294;18.644;2023-04-30T09:07:26;5.67;;;2.70;;
18647;SDS011;9453;50.294;18.644;2023-04-30T09:09:57;6.50;;;3.07;;
18647;SDS011;9453;50.294;18.644;2023-04-30T09:12:24;5.97;;;2.00;;
18647;SDS011;9453;50.294;18.644;2023-04-30T09:14:58;6.57;;;2.87;;
18647;SDS011;9453;50.294;18.644;2023-04-30T09:17:27;5.80;;;2.50;;
18647;SDS011;9453;50.294;18.644;2023-04-30T09:19:55;5.38;;;2.00;;
18647;SDS011;9453;50.294;18.644;2023-04-30T09:22:32;3.97;;;2.50;;
18647;SDS011;9453;50.294;18.644;2023-04-30T09:25:01;5.67;;;2.27;;
18647;SDS011;9453;50.294;18.644;2023-04-30T09:27:29;7.37;;;2.80;;
18647;SDS011;9453;50.294;18.644;2023-04-30T09:29:56;5.37;;;2.80;;
18647;SDS011;9453;50.294;18.644;2023-04-30T09:32:22;6.13;;;2.58;;
18647;SDS011;9453;50.294;18.644;2023-04-30T09:34:50;7.23;;;2.30;;
18647;SDS011;9453;50.294;18.644;2023-04-30T09:37:17;5.83;;;2.47;;
18647;SDS011;9453;50.294;18.644;2023-04-30T09:39:48;5.47;;;2.13;;
18647;SDS011;9453;50.294;18.644;2023-04-30T09:42:17;4.32;;;2.70;;
18647;SDS011;9453;50.294;18.644;2023-04-30T09:44:44;6.32;;;2.55;;
18647;SDS011;9453;50.294;18.644;2023-04-30T09:47:13;5.50;;;2.78;;
18647;SDS011;9453;50.294;18.644;2023-04-30T09:49:41;6.40;;;2.50;;
18647;SDS011;9453;50.294;18.644;2023-04-30T09:52:09;4.90;;;2.40;;
18647;SDS011;9453;50.294;18.644;2023-04-30T09:54:37;7.07;;;2.30;;
18647;SDS011;9453;50.294;18.644;2023-04-30T09:57:05;6.00;;;2.70;;
18647;SDS011;9453;50.294;18.644;2023-04-30T09:59:38;5.90;;;2.40;;
18647;SDS011;9453;50.294;18.644;2023-04-30T10:02:09;6.70;;;2.63;;
18647;SDS011;9453;50.294;18.644;2023-04-30T10:04:38;5.95;;;2.75;;
18647;SDS011;9453;50.294;18.644;2023-04-30T10:07:09;6.88;;;2.88;;
18647;SDS011;9453;50.294;18.644;2023-04-30T10:09:39;4.78;;;2.55;;
18647;SDS011;9453;50.294;18.644;2023-04-30T10:12:12;4.47;;;2.10;;
18647;SDS011;9453;50.294;18.644;2023-04-30T10:14:54;5.80;;;2.40;;
18647;SDS011;9453;50.294;18.644;2023-04-30T10:17:26;9.18;;;2.75;;
18647;SDS011;9453;50.294;18.644;2023-04-30T10:19:57;6.03;;;2.08;;
18647;SDS011;9453;50.294;18.644;2023-04-30T10:22:29;4.20;;;2.78;;
18647;SDS011;9453;50.294;18.644;2023-04-30T10:24:58;12.25;;;3.63;;
18647;SDS011;9453;50.294;18.644;2023-04-30T10:27:26;9.30;;;3.00;;
18647;SDS011;9453;50.294;18.644;2023-04-30T10:29:55;6.38;;;3.40;;
18647;SDS011;9453;50.294;18.644;2023-04-30T10:32:23;5.75;;;2.70;;
18647;SDS011;9453;50.294;18.644;2023-04-30T10:34:59;6.15;;;2.83;;
18647;SDS011;9453;50.294;18.644;2023-04-30T10:37:38;4.63;;;2.35;;
18647;SDS011;9453;50.294;18.644;2023-04-30T10:40:15;6.05;;;2.60;;
18647;SDS011;9453;50.294;18.644;2023-04-30T10:42:44;6.80;;;2.65;;
18647;SDS011;9453;50.294;18.644;2023-04-30T10:45:13;5.28;;;2.72;;
18647;SDS011;9453;50.294;18.644;2023-04-30T10:47:42;5.13;;;2.60;;
18647;SDS011;9453;50.294;18.644;2023-04-30T10:50:10;7.10;;;2.83;;
18647;SDS011;9453;50.294;18.644;2023-04-30T10:52:38;8.15;;;2.85;;
18647;SDS011;9453;50.294;18.644;2023-04-30T10:55:05;8.02;;;2.83;;
18647;SDS011;9453;50.294;18.644;2023-04-30T10:57:39;6.13;;;2.85;;
18647;SDS011;9453;50.294;18.644;2023-04-30T11:00:24;5.22;;;2.60;;
18647;SDS011;9453;50.294;18.644;2023-04-30T11:02:55;5.13;;;2.67;;
18647;SDS011;9453;50.294;18.644;2023-04-30T11:05:32;3.50;;;2.08;;
18647;SDS011;9453;50.294;18.644;2023-04-30T11:08:01;5.57;;;2.50;;
18647;SDS011;9453;50.294;18.644;2023-04-30T11:10:31;7.38;;;2.78;;
18647;SDS011;9453;50.294;18.644;2023-04-30T11:13:02;6.70;;;2.60;;
18647;SDS011;9453;50.294;18.644;2023-04-30T11:15:32;4.78;;;2.40;;
18647;SDS011;9453;50.294;18.644;2023-04-30T11:18:01;4.43;;;2.58;;
18647;SDS011;9453;50.294;18.644;2023-04-30T11:20:28;7.68;;;2.92;;
18647;SDS011;9453;50.294;18.644;2023-04-30T11:23:08;4.75;;;2.60;;
18647;SDS011;9453;50.294;18.644;2023-04-30T11:25:40;5.95;;;2.30;;
18647;SDS011;9453;50.294;18.644;2023-04-30T11:28:12;6.07;;;2.53;;
18647;SDS011;9453;50.294;18.644;2023-04-30T11:30:50;5.25;;;2.15;;
18647;SDS011;9453;50.294;18.644;2023-04-30T11:33:18;5.88;;;2.40;;
18647;SDS011;9453;50.294;18.644;2023-04-30T11:35:46;8.23;;;2.47;;
18647;SDS011;9453;50.294;18.644;2023-04-30T11:38:16;9.07;;;2.50;;
18647;SDS011;9453;50.294;18.644;2023-04-30T11:40:47;10.32;;;2.35;;
18647;SDS011;9453;50.294;18.644;2023-04-30T11:43:23;8.60;;;2.30;;
18647;SDS011;9453;50.294;18.644;2023-04-30T11:46:06;7.90;;;2.30;;
18647;SDS011;9453;50.294;18.644;2023-04-30T11:48:35;3.05;;;1.70;;
18647;SDS011;9453;50.294;18.644;2023-04-30T11:51:04;4.68;;;1.95;;
18647;SDS011;9453;50.294;18.644;2023-04-30T11:53:39;7.63;;;2.47;;
18647;SDS011;9453;50.294;18.644;2023-04-30T11:56:07;6.25;;;2.33;;
18647;SDS011;9453;50.294;18.644;2023-04-30T11:58:34;8.25;;;2.88;;
18647;SDS011;9453;50.294;18.644;2023-04-30T12:01:05;5.55;;;2.20;;
18647;SDS011;9453;50.294;18.644;2023-04-30T12:03:38;4.78;;;1.80;;
18647;SDS011;9453;50.294;18.644;2023-04-30T12:06:08;8.30;;;2.20;;
18647;SDS011;9453;50.294;18.644;2023-04-30T12:08:36;4.40;;;2.13;;
18647;SDS011;9453;50.294;18.644;2023-04-30T12:11:03;5.75;;;1.95;;
18647;SDS011;9453;50.294;18.644;2023-04-30T12:13:32;4.10;;;1.83;;
18647;SDS011;9453;50.294;18.644;2023-04-30T12:15:59;5.15;;;1.83;;
18647;SDS011;9453;50.294;18.644;2023-04-30T12:18:28;6.85;;;2.03;;
18647;SDS011;9453;50.294;18.644;2023-04-30T12:20:58;4.10;;;2.00;;
18647;SDS011;9453;50.294;18.644;2023-04-30T12:23:26;5.75;;;1.88;;
18647;SDS011;9453;50.294;18.644;2023-04-30T12:25:53;8.90;;;2.38;;
18647;SDS011;9453;50.294;18.644;2023-04-30T12:28:24;4.40;;;1.67;;
18647;SDS011;9453;50.294;18.644;2023-04-30T12:30:52;6.00;;;1.80;;
18647;SDS011;9453;50.294;18.644;2023-04-30T12:33:19;5.40;;;2.50;;
18647;SDS011;9453;50.294;18.644;2023-04-30T12:35:51;9.48;;;2.30;;
18647;SDS011;9453;50.294;18.644;2023-04-30T12:38:18;5.43;;;1.90;;
18647;SDS011;9453;50.294;18.644;2023-04-30T12:40:47;6.78;;;2.45;;
18647;SDS011;9453;50.294;18.644;2023-04-30T12:43:15;5.53;;;2.20;;
18647;SDS011;9453;50.294;18.644;2023-04-30T12:45:46;5.47;;;2.35;;
18647;SDS011;9453;50.294;18.644;2023-04-30T12:48:15;9.20;;;2.17;;
18647;SDS011;9453;50.294;18.644;2023-04-30T12:50:49;5.65;;;1.90;;
18647;SDS011;9453;50.294;18.644;2023-04-30T12:53:18;7.22;;;1.88;;
18647;SDS011;9453;50.294;18.644;2023-04-30T12:58:34;3.63;;;1.77;;
18647;SDS011;9453;50.294;18.644;2023-04-30T13:01:01;3.85;;;1.73;;
18647;SDS011;9453;50.294;18.644;2023-04-30T13:03:29;5.80;;;2.03;;
18647;SDS011;9453;50.294;18.644;2023-04-30T13:05:57;6.60;;;2.03;;
18647;SDS011;9453;50.294;18.644;2023-04-30T13:08:26;8.15;;;2.25;;
18647;SDS011;9453;50.294;18.644;2023-04-30T13:10:53;4.35;;;1.70;;
18647;SDS011;9453;50.294;18.644;2023-04-30T13:13:21;5.43;;;2.22;;
18647;SDS011;9453;50.294;18.644;2023-04-30T13:15:48;6.13;;;2.30;;
18647;SDS011;9453;50.294;18.644;2023-04-30T13:18:15;3.05;;;1.83;;
18647;SDS011;9453;50.294;18.644;2023-04-30T13:20:42;3.95;;;2.13;;
18647;SDS011;9453;50.294;18.644;2023-04-30T13:23:10;6.10;;;2.42;;
18647;SDS011;9453;50.294;18.644;2023-04-30T13:25:37;6.28;;;2.20;;
18647;SDS011;9453;50.294;18.644;2023-04-30T13:28:05;5.75;;;2.33;;
18647;SDS011;9453;50.294;18.644;2023-04-30T13:30:33;3.10;;;1.83;;
18647;SDS011;9453;50.294;18.644;2023-04-30T13:33:00;4.88;;;2.10;;
18647;SDS011;9453;50.294;18.644;2023-04-30T13:35:27;8.63;;;1.98;;
18647;SDS011;9453;50.294;18.644;2023-04-30T13:37:54;3.92;;;1.80;;
18647;SDS011;9453;50.294;18.644;2023-04-30T13:40:23;3.28;;;1.48;;
18647;SDS011;9453;50.294;18.644;2023-04-30T13:42:50;3.78;;;1.95;;
18647;SDS011;9453;50.294;18.644;2023-04-30T13:45:18;3.47;;;1.80;;
18647;SDS011;9453;50.294;18.644;2023-04-30T13:47:44;5.65;;;1.83;;
18647;SDS011;9453;50.294;18.644;2023-04-30T13:50:12;6.20;;;1.85;;
18647;SDS011;9453;50.294;18.644;2023-04-30T13:52:39;6.30;;;1.70;;
18647;SDS011;9453;50.294;18.644;2023-04-30T13:55:06;4.93;;;2.10;;
18647;SDS011;9453;50.294;18.644;2023-04-30T13:57:35;5.22;;;2.25;;
18647;SDS011;9453;50.294;18.644;2023-04-30T14:00:04;5.35;;;1.80;;
18647;SDS011;9453;50.294;18.644;2023-04-30T14:02:32;3.55;;;1.70;;
18647;SDS011;9453;50.294;18.644;2023-04-30T14:05:00;3.90;;;1.60;;
18647;SDS011;9453;50.294;18.644;2023-04-30T14:07:29;3.55;;;1.65;;
18647;SDS011;9453;50.294;18.644;2023-04-30T14:09:57;5.85;;;2.00;;
18647;SDS011;9453;50.294;18.644;2023-04-30T14:12:24;3.33;;;1.65;;
18647;SDS011;9453;50.294;18.644;2023-04-30T14:14:55;4.65;;;1.30;;
18647;SDS011;9453;50.294;18.644;2023-04-30T14:17:23;4.20;;;1.58;;
18647;SDS011;9453;50.294;18.644;2023-04-30T14:19:50;8.13;;;1.95;;
18647;SDS011;9453;50.294;18.644;2023-04-30T14:22:17;2.90;;;1.63;;
18647;SDS011;9453;50.294;18.644;2023-04-30T14:24:44;5.68;;;1.85;;
18647;SDS011;9453;50.294;18.644;2023-04-30T14:27:11;6.28;;;1.77;;
18647;SDS011;9453;50.294;18.644;2023-04-30T14:29:38;4.28;;;1.70;;
18647;SDS011;9453;50.294;18.644;2023-04-30T14:32:07;3.25;;;1.73;;
18647;SDS011;9453;50.294;18.644;2023-04-30T14:34:33;5.07;;;1.40;;
18647;SDS011;9453;50.294;18.644;2023-04-30T14:37:01;7.40;;;2.10;;
18647;SDS011;9453;50.294;18.644;2023-04-30T14:39:28;8.05;;;2.00;;
18647;SDS011;9453;50.294;18.644;2023-04-30T14:41:55;5.28;;;1.75;;
18647;SDS011;9453;50.294;18.644;2023-04-30T14:44:22;3.85;;;1.55;;
18647;SDS011;9453;50.294;18.644;2023-04-30T14:46:49;3.55;;;1.80;;
18647;SDS011;9453;50.294;18.644;2023-04-30T14:49:18;3.40;;;1.58;;
18647;SDS011;9453;50.294;18.644;2023-04-30T14:51:45;5.60;;;1.60;;
18647;SDS011;9453;50.294;18.644;2023-04-30T14:54:12;5.30;;;1.63;;
18647;SDS011;9453;50.294;18.644;2023-04-30T14:56:39;4.15;;;1.50;;
18647;SDS011;9453;50.294;18.644;2023-04-30T14:59:06;4.38;;;1.30;;
18647;SDS011;9453;50.294;18.644;2023-04-30T15:01:33;2.75;;;1.63;;
18647;SDS011;9453;50.294;18.644;2023-04-30T15:04:01;6.72;;;1.60;;
18647;SDS011;9453;50.294;18.644;2023-04-30T15:06:30;3.45;;;1.80;;
18647;SDS011;9453;50.294;18.644;2023-04-30T15:08:57;6.65;;;1.58;;
18647;SDS011;9453;50.294;18.644;2023-04-30T15:11:24;5.15;;;1.42;;
18647;SDS011;9453;50.294;18.644;2023-04-30T15:13:51;4.13;;;1.50;;
18647;SDS011;9453;50.294;18.644;2023-04-30T15:16:19;6.10;;;1.77;;
18647;SDS011;9453;50.294;18.644;2023-04-30T15:18:46;4.97;;;1.50;;
18647;SDS011;9453;50.294;18.644;2023-04-30T15:21:14;4.35;;;1.90;;
18647;SDS011;9453;50.294;18.644;2023-04-30T15:23:42;3.38;;;1.52;;
18647;SDS011;9453;50.294;18.644;2023-04-30T15:26:09;3.58;;;1.45;;
18647;SDS011;9453;50.294;18.644;2023-04-30T15:28:37;4.15;;;1.52;;
18647;SDS011;9453;50.294;18.644;2023-04-30T15:31:04;3.33;;;1.33;;
18647;SDS011;9453;50.294;18.644;2023-04-30T15:33:31;8.05;;;1.70;;
18647;SDS011;9453;50.294;18.644;2023-04-30T15:36:03;5.93;;;1.65;;
18647;SDS011;9453;50.294;18.644;2023-04-30T15:38:31;5.97;;;1.80;;
18647;SDS011;9453;50.294;18.644;2023-04-30T15:40:59;5.22;;;1.60;;
18647;SDS011;9453;50.294;18.644;2023-04-30T15:43:26;3.95;;;1.48;;
18647;SDS011;9453;50.294;18.644;2023-04-30T15:45:54;3.13;;;1.52;;
18647;SDS011;9453;50.294;18.644;2023-04-30T15:48:21;4.47;;;1.63;;
18647;SDS011;9453;50.294;18.644;2023-04-30T15:50:48;6.63;;;1.70;;
18647;SDS011;9453;50.294;18.644;2023-04-30T15:53:15;6.22;;;2.50;;
18647;SDS011;9453;50.294;18.644;2023-04-30T15:55:42;6.45;;;1.70;;
18647;SDS011;9453;50.294;18.644;2023-04-30T15:58:12;4.72;;;1.67;;
18647;SDS011;9453;50.294;18.644;2023-04-30T16:00:38;5.53;;;1.30;;
18647;SDS011;9453;50.294;18.644;2023-04-30T16:03:06;4.03;;;1.90;;
18647;SDS011;9453;50.294;18.644;2023-04-30T16:05:33;3.65;;;1.35;;
18647;SDS011;9453;50.294;18.644;2023-04-30T16:08:02;5.20;;;2.00;;
18647;SDS011;9453;50.294;18.644;2023-04-30T16:10:29;3.42;;;1.30;;
18647;SDS011;9453;50.294;18.644;2023-04-30T16:12:56;3.70;;;1.40;;
18647;SDS011;9453;50.294;18.644;2023-04-30T16:15:25;1.90;;;1.25;;
18647;SDS011;9453;50.294;18.644;2023-04-30T16:17:54;4.70;;;1.70;;
18647;SDS011;9453;50.294;18.644;2023-04-30T16:20:21;4.90;;;1.52;;
18647;SDS011;9453;50.294;18.644;2023-04-30T16:22:48;3.75;;;1.77;;
18647;SDS011;9453;50.294;18.644;2023-04-30T16:25:16;9.70;;;1.55;;
18647;SDS011;9453;50.294;18.644;2023-04-30T16:27:44;6.43;;;1.73;;
18647;SDS011;9453;50.294;18.644;2023-04-30T16:30:11;3.65;;;1.70;;
18647;SDS011;9453;50.294;18.644;2023-04-30T16:32:40;5.80;;;1.70;;
18647;SDS011;9453;50.294;18.644;2023-04-30T16:35:07;5.50;;;1.50;;
18647;SDS011;9453;50.294;18.644;2023-04-30T16:37:34;6.03;;;1.63;;
18647;SDS011;9453;50.294;18.644;2023-04-30T16:40:01;6.63;;;1.67;;
18647;SDS011;9453;50.294;18.644;2023-04-30T16:42:30;7.95;;;1.65;;
18647;SDS011;9453;50.294;18.644;2023-04-30T16:44:58;5.60;;;1.30;;
18647;SDS011;9453;50.294;18.644;2023-04-30T16:47:25;3.17;;;1.13;;
18647;SDS011;9453;50.294;18.644;2023-04-30T16:49:53;7.25;;;1.50;;
18647;SDS011;9453;50.294;18.644;2023-04-30T16:52:22;3.83;;;1.50;;
18647;SDS011;9453;50.294;18.644;2023-04-30T16:54:49;5.10;;;1.77;;
18647;SDS011;9453;50.294;18.644;2023-04-30T16:57:16;5.28;;;1.95;;
18647;SDS011;9453;50.294;18.644;2023-04-30T16:59:43;4.53;;;1.77;;
18647;SDS011;9453;50.294;18.644;2023-04-30T17:02:10;2.10;;;1.20;;
18647;SDS011;9453;50.294;18.644;2023-04-30T17:04:38;7.13;;;1.85;;
18647;SDS011;9453;50.294;18.644;2023-04-30T17:07:06;3.67;;;1.90;;
18647;SDS011;9453;50.294;18.644;2023-04-30T17:09:33;5.47;;;1.48;;
18647;SDS011;9453;50.294;18.644;2023-04-30T17:12:00;5.90;;;1.92;;
18647;SDS011;9453;50.294;18.644;2023-04-30T17:14:27;3.60;;;1.35;;
18647;SDS011;9453;50.294;18.644;2023-04-30T17:16:55;5.30;;;1.80;;
18647;SDS011;9453;50.294;18.644;2023-04-30T17:19:22;6.93;;;1.75;;
18647;SDS011;9453;50.294;18.644;2023-04-30T17:21:49;3.88;;;1.65;;
18647;SDS011;9453;50.294;18.644;2023-04-30T17:24:17;2.95;;;1.40;;
18647;SDS011;9453;50.294;18.644;2023-04-30T17:26:44;3.85;;;1.48;;
18647;SDS011;9453;50.294;18.644;2023-04-30T17:29:11;4.55;;;1.70;;
18647;SDS011;9453;50.294;18.644;2023-04-30T17:31:38;5.47;;;1.80;;
18647;SDS011;9453;50.294;18.644;2023-04-30T17:34:05;8.93;;;3.00;;
18647;SDS011;9453;50.294;18.644;2023-04-30T17:36:33;6.68;;;1.88;;
18647;SDS011;9453;50.294;18.644;2023-04-30T17:39:00;9.75;;;1.77;;
18647;SDS011;9453;50.294;18.644;2023-04-30T17:41:31;3.30;;;1.37;;
18647;SDS011;9453;50.294;18.644;2023-04-30T17:43:58;3.97;;;1.85;;
18647;SDS011;9453;50.294;18.644;2023-04-30T17:46:25;3.47;;;1.40;;
18647;SDS011;9453;50.294;18.644;2023-04-30T17:48:51;2.85;;;1.42;;
18647;SDS011;9453;50.294;18.644;2023-04-30T17:51:18;4.80;;;1.45;;
18647;SDS011;9453;50.294;18.644;2023-04-30T17:53:45;6.77;;;1.83;;
18647;SDS011;9453;50.294;18.644;2023-04-30T17:56:12;2.73;;;1.40;;
18647;SDS011;9453;50.294;18.644;2023-04-30T17:58:41;7.13;;;1.80;;
18647;SDS011;9453;50.294;18.644;2023-04-30T18:01:09;2.87;;;1.60;;
18647;SDS011;9453;50.294;18.644;2023-04-30T18:03:37;6.40;;;1.67;;
18647;SDS011;9453;50.294;18.644;2023-04-30T18:06:04;7.17;;;2.00;;
18647;SDS011;9453;50.294;18.644;2023-04-30T18:08:31;5.70;;;2.00;;
18647;SDS011;9453;50.294;18.644;2023-04-30T18:10:58;4.00;;;1.90;;
18647;SDS011;9453;50.294;18.644;2023-04-30T18:13:27;5.33;;;2.10;;
18647;SDS011;9453;50.294;18.644;2023-04-30T18:15:55;7.60;;;1.97;;
18647;SDS011;9453;50.294;18.644;2023-04-30T18:18:24;7.00;;;2.20;;
18647;SDS011;9453;50.294;18.644;2023-04-30T18:20:51;5.97;;;2.03;;
18647;SDS011;9453;50.294;18.644;2023-04-30T18:23:18;6.50;;;2.43;;
18647;SDS011;9453;50.294;18.644;2023-04-30T18:25:45;6.63;;;2.63;;
18647;SDS011;9453;50.294;18.644;2023-04-30T18:28:12;12.27;;;4.80;;
18647;SDS011;9453;50.294;18.644;2023-04-30T18:30:39;17.50;;;5.90;;
18647;SDS011;9453;50.294;18.644;2023-04-30T18:33:08;11.50;;;4.03;;
18647;SDS011;9453;50.294;18.644;2023-04-30T18:35:35;12.97;;;3.07;;
18647;SDS011;9453;50.294;18.644;2023-04-30T18:38:02;8.13;;;2.80;;
18647;SDS011;9453;50.294;18.644;2023-04-30T18:40:32;9.53;;;2.97;;
18647;SDS011;9453;50.294;18.644;2023-04-30T18:42:59;12.23;;;2.97;;
18647;SDS011;9453;50.294;18.644;2023-04-30T18:45:26;6.87;;;2.20;;
18647;SDS011;9453;50.294;18.644;2023-04-30T18:47:53;7.07;;;2.87;;
18647;SDS011;9453;50.294;18.644;2023-04-30T18:50:22;10.20;;;3.30;;
18647;SDS011;9453;50.294;18.644;2023-04-30T18:52:50;12.97;;;2.80;;